createdAt,value
2022-11-05T00:07:15.158Z,7.37
2022-11-05T00:17:17.912Z,7.42
2022-11-05T00:27:20.429Z,7.44
2022-11-05T00:37:22.829Z,7.44
2022-11-05T00:47:44.399Z,7.44
2022-11-05T00:57:46.791Z,7.47
2022-11-05T01:07:49.157Z,7.52
2022-11-05T01:17:52.580Z,7.55
2022-11-05T01:27:55.112Z,7.54
2022-11-05T01:37:57.460Z,7.56
2022-11-05T01:48:14.340Z,7.60
2022-11-05T01:58:21.558Z,7.62
2022-11-05T02:08:53.949Z,7.62
2022-11-05T02:19:50.285Z,7.60
2022-11-05T02:30:05.064Z,7.62
2022-11-05T02:40:19.900Z,7.66
2022-11-05T02:50:27.870Z,7.70
2022-11-05T03:00:53.198Z,7.69
2022-11-05T03:11:02.631Z,7.70
2022-11-05T03:21:09.937Z,7.71
2022-11-05T03:31:14.853Z,7.70
2022-11-05T03:41:17.814Z,7.68
2022-11-05T03:51:32.474Z,7.68
2022-11-05T04:01:37.522Z,7.71
2022-11-05T04:11:58.434Z,7.78
2022-11-05T04:22:19.110Z,7.82
2022-11-05T04:32:21.485Z,7.83
2022-11-05T04:42:23.806Z,7.86
2022-11-05T04:52:26.017Z,7.88
2022-11-05T05:02:28.705Z,7.89
2022-11-05T05:12:33.015Z,7.89
2022-11-05T05:22:35.636Z,7.87
2022-11-05T05:32:37.991Z,7.88
2022-11-05T05:42:43.211Z,7.89
2022-11-05T05:52:46.097Z,7.92
2022-11-05T06:02:48.549Z,7.90
2022-11-05T06:12:51.241Z,7.92
2022-11-05T06:22:57.745Z,7.92
2022-11-05T06:33:06.954Z,7.94
2022-11-05T06:43:09.930Z,7.93
2022-11-05T06:53:13.723Z,7.89
2022-11-05T07:03:16.388Z,7.85
2022-11-05T07:13:18.930Z,7.84
2022-11-05T07:23:21.568Z,7.90
2022-11-05T07:33:24.177Z,7.94
2022-11-05T07:43:26.660Z,8.02
2022-11-05T07:53:28.909Z,8.05
2022-11-05T08:03:31.439Z,8.09
2022-11-05T08:13:35.073Z,8.12
2022-11-05T08:23:39.407Z,8.24
2022-11-05T08:33:41.870Z,8.53
2022-11-05T08:43:44.619Z,8.80
2022-11-05T08:53:47.229Z,8.94
2022-11-05T09:03:53.203Z,9.14
2022-11-05T09:13:55.920Z,9.18
2022-11-05T09:23:58.388Z,9.18
2022-11-05T09:34:01.041Z,9.33
2022-11-05T09:44:16.713Z,9.43
2022-11-05T09:54:22.824Z,9.60
2022-11-05T10:04:31.405Z,9.90
2022-11-05T10:14:49.827Z,10.10
2022-11-05T10:24:53.914Z,10.38
2022-11-05T10:34:59.434Z,10.26
2022-11-05T10:45:30.871Z,10.48
2022-11-05T10:55:41.576Z,10.59
2022-11-05T11:05:44.172Z,10.84
2022-11-05T11:15:46.626Z,10.91
2022-11-05T11:25:57.955Z,10.99
2022-11-05T11:36:01.215Z,11.27
2022-11-05T11:46:09.879Z,11.51
2022-11-05T11:56:22.150Z,11.35
2022-11-05T12:06:35.896Z,11.51
2022-11-05T12:16:54.467Z,11.71
2022-11-05T12:27:17.457Z,11.55
2022-11-05T12:37:26.528Z,11.53
2022-11-05T12:47:32.198Z,11.63
2022-11-05T12:57:41.610Z,11.51
2022-11-05T13:08:01.287Z,11.34
2022-11-05T13:18:11.180Z,11.02
2022-11-05T13:28:36.446Z,10.97
2022-11-05T13:39:01.385Z,10.65
2022-11-05T13:49:04.137Z,10.74
2022-11-05T13:59:18.939Z,11.05
2022-11-05T14:09:26.262Z,11.24
2022-11-05T14:19:33.716Z,11.12
2022-11-05T14:29:54.351Z,11.18
2022-11-05T14:40:01.824Z,11.06
2022-11-05T14:50:36.900Z,10.58
2022-11-05T15:00:43.560Z,10.10
2022-11-05T15:10:49.600Z,9.87
2022-11-05T15:20:57.550Z,9.53
2022-11-05T15:31:05.106Z,9.15
2022-11-05T15:41:17.675Z,8.74
2022-11-05T15:51:23.967Z,8.27
2022-11-05T16:01:46.014Z,7.82
2022-11-05T16:11:49.146Z,7.41
2022-11-05T16:21:55.552Z,7.06
2022-11-05T16:32:00.405Z,6.73
2022-11-05T16:42:14.154Z,6.43
2022-11-05T16:52:17.149Z,6.10
2022-11-05T17:02:19.939Z,5.82
2022-11-05T17:12:22.827Z,5.52
2022-11-05T17:22:25.462Z,5.26
2022-11-05T17:32:28.175Z,5.08
2022-11-05T17:42:30.847Z,4.85
2022-11-05T17:52:33.571Z,4.72
2022-11-05T18:02:36.210Z,4.58
2022-11-05T18:12:39.561Z,4.40
2022-11-05T18:22:43.793Z,4.37
2022-11-05T18:32:48.253Z,4.30
2022-11-05T18:42:51.096Z,4.41
2022-11-05T18:52:53.698Z,4.49
2022-11-05T19:02:56.380Z,4.57
2022-11-05T19:12:59.630Z,4.65
2022-11-05T19:23:03.352Z,4.75
2022-11-05T19:33:06.374Z,4.64
2022-11-05T19:43:09.303Z,4.43
2022-11-05T19:53:12.126Z,4.14
2022-11-05T20:03:14.907Z,3.95
2022-11-05T20:13:19.936Z,3.79
2022-11-05T20:23:22.729Z,3.67
2022-11-05T20:33:30.429Z,3.53
2022-11-05T20:43:33.306Z,3.37
2022-11-05T20:53:36.987Z,3.26
2022-11-05T21:03:39.949Z,3.20
2022-11-05T21:13:43.235Z,3.02
2022-11-05T21:23:45.867Z,2.93
2022-11-05T21:33:54.000Z,2.86
2022-11-05T21:43:57.864Z,2.79
2022-11-05T21:54:18.723Z,2.65
2022-11-05T22:04:21.335Z,2.60
2022-11-05T22:14:24.215Z,2.49
2022-11-05T22:24:28.571Z,2.49
2022-11-05T22:34:31.163Z,2.49
2022-11-05T22:44:33.553Z,2.41
2022-11-05T22:54:39.224Z,2.24
2022-11-05T23:04:42.624Z,2.18
2022-11-05T23:14:45.018Z,2.17
2022-11-05T23:24:48.352Z,2.20
2022-11-05T23:34:55.632Z,2.17
2022-11-05T23:45:16.966Z,2.27
2022-11-05T23:55:20.333Z,2.22
